Airport View

Enter AWOS ICAO identifier for current METAR.

ex. KFNL

KCKI 170925Z AUTO 34007KT 290V020 10SM OVC023 06/02 A2996 RMK AO2

17 Nov 2019 09:27

Frequency: 124.775

Phone: 843-382-3000

Other Area AWOS: KMNI - KFLO - KSMS - KMKS

TAF COR KFLO 170558Z 1706/1806 01019G27KT P6SM -RA BKN020 OVC030 FM171000 36017G25KT P6SM BKN025 OVC035 FM171400 36016G23KT P6SM BKN030 OVC040 FM172300 35011G17KT P6SM BKN045